Time;durP1;ratioP1;P1;durP2;ratioP2;P2;SDS_P1;SDS_P2;PMS_P1;PMS_P2;Temp;Humidity;BMP_temperature;BMP_pressure;BME280_temperature;BME280_humidity;BME280_pressure;Samples;Min_cycle;Max_cycle;Signal;HPM_P1;HPM_P2
2021/01/26 00:00:20;;;;;;;28.38;15.98;;;;;;;2.73;68.18;99397.56;5050930;28;20033;-65
2021/01/26 00:02:46;;;;;;;17.08;9.63;;;;;;;2.93;67.45;99402.69;5050092;28;20044;-65
2021/01/26 00:05:13;;;;;;;29.85;15.63;;;;;;;2.73;67.34;99397.56;5050407;28;20047;-64
2021/01/26 00:07:38;;;;;;;27.95;16.05;;;;;;;1.98;67.21;99259.88;5059636;28;20037;-59
2021/01/26 00:10:06;;;;;;;26.35;14.10;;;;;;;2.23;68.03;99328.03;5070160;28;20047;-65
2021/01/26 00:12:33;;;;;;;29.58;15.25;;;;;;;2.70;67.41;99376.59;5067903;28;20051;-64
2021/01/26 00:14:58;;;;;;;30.30;16.02;;;;;;;2.74;67.18;99408.97;5069590;28;20036;-64
2021/01/26 00:17:24;;;;;;;31.58;18.20;;;;;;;2.81;67.42;99389.22;5061584;28;20126;-66
2021/01/26 00:19:49;;;;;;;37.60;20.08;;;;;;;2.77;67.31;99381.53;5049965;28;20044;-64
2021/01/26 00:22:15;;;;;;;35.67;18.33;;;;;;;2.89;67.35;99387.94;5050937;28;20045;-64
2021/01/26 00:24:41;;;;;;;37.80;18.40;;;;;;;2.87;67.52;99388.88;5049886;28;20049;-60
2021/01/26 00:27:06;;;;;;;38.03;20.65;;;;;;;2.71;67.85;99386.22;5049981;28;20029;-64
2021/01/26 00:29:32;;;;;;;33.08;17.50;;;;;;;2.61;67.40;99361.22;5049693;28;20109;-64
2021/01/26 00:31:57;;;;;;;35.20;19.35;;;;;;;2.33;67.86;99323.09;5050880;28;20043;-64
2021/01/26 00:34:23;;;;;;;35.85;19.70;;;;;;;2.64;68.17;99386.63;5049561;28;20040;-54
2021/01/26 00:36:48;;;;;;;34.03;18.98;;;;;;;2.60;68.40;99383.31;5049767;28;20043;-64
2021/01/26 00:39:14;;;;;;;27.10;14.32;;;;;;;2.59;68.35;99373.66;5050122;28;20041;-65
2021/01/26 00:41:40;;;;;;;24.13;13.25;;;;;;;2.64;67.80;99358.41;5050606;28;20132;-57
2021/01/26 00:44:05;;;;;;;31.38;16.50;;;;;;;2.17;68.11;99315.16;5068144;28;20507;-64
2021/01/26 00:46:31;;;;;;;27.20;14.70;;;;;;;2.56;68.70;99380.00;5069775;28;20040;-65
2021/01/26 00:48:56;;;;;;;33.78;16.40;;;;;;;2.49;68.75;99372.47;5069395;28;20725;-64
2021/01/26 00:51:22;;;;;;;29.33;16.52;;;;;;;2.48;68.41;99376.06;5068214;28;20184;-64
2021/01/26 00:53:47;;;;;;;28.73;16.83;;;;;;;2.42;68.66;99380.75;5068173;28;20036;-63
2021/01/26 00:56:13;;;;;;;29.80;16.35;;;;;;;2.37;68.97;99361.63;5069790;28;20032;-64
2021/01/26 00:58:38;;;;;;;25.58;13.10;;;;;;;2.54;68.42;99370.44;5069761;28;20480;-62
2021/01/26 01:01:04;;;;;;;27.95;16.77;;;;;;;2.16;68.50;99326.66;5062962;28;20069;-64
2021/01/26 01:03:30;;;;;;;30.73;16.70;;;;;;;2.37;68.65;99366.06;5062125;28;20047;-65
2021/01/26 01:05:55;;;;;;;28.80;15.35;;;;;;;2.04;68.94;99280.66;5049396;28;20052;-63
2021/01/26 01:08:21;;;;;;;28.13;14.77;;;;;;;2.28;68.40;99328.63;5048984;28;20037;-65
2021/01/26 01:10:50;;;;;;;34.38;18.70;;;;;;;2.20;68.47;99322.09;5049895;28;20041;-64
2021/01/26 01:13:16;;;;;;;29.50;14.10;;;;;;;2.45;68.54;99350.66;5049457;28;20033;-66
2021/01/26 01:15:41;;;;;;;32.50;18.25;;;;;;;2.35;68.67;99350.28;5052338;28;20043;-51
2021/01/26 01:18:07;;;;;;;36.38;19.40;;;;;;;2.33;68.31;99349.53;5069297;28;20033;-64
2021/01/26 01:20:33;;;;;;;31.92;17.25;;;;;;;2.48;68.31;99362.84;5060443;28;20029;-65
2021/01/26 01:22:59;;;;;;;36.67;18.70;;;;;;;2.33;68.93;99351.31;5049826;28;20122;-65
2021/01/26 01:25:24;;;;;;;35.22;19.67;;;;;;;2.27;68.97;99344.59;5050267;28;20159;-64
2021/01/26 01:27:50;;;;;;;31.02;15.55;;;;;;;2.30;68.79;99333.84;5049312;28;20044;-65
2021/01/26 01:30:22;;;;;;;38.47;19.55;;;;;;;2.27;69.05;99350.69;5048104;28;20057;-63
2021/01/26 01:32:48;;;;;;;41.50;21.38;;;;;;;2.18;69.05;99329.25;5050139;28;20382;-65
2021/01/26 01:35:14;;;;;;;39.47;21.48;;;;;;;2.27;68.83;99334.84;5050108;28;20043;-63
2021/01/26 01:37:40;;;;;;;40.90;19.88;;;;;;;2.32;68.69;99334.59;5049402;28;20040;-64
2021/01/26 01:40:10;;;;;;;49.17;22.17;;;;;;;2.21;69.06;99329.91;5049308;28;20437;-64
2021/01/26 01:42:35;;;;;;;44.00;22.25;;;;;;;2.20;68.88;99344.03;5049724;28;20033;-65
2021/01/26 01:45:01;;;;;;;39.40;20.52;;;;;;;2.17;69.09;99332.78;5053770;28;20407;-64
2021/01/26 01:47:30;;;;;;;39.88;21.30;;;;;;;1.88;69.29;99285.03;5052539;28;20453;-63
2021/01/26 01:49:57;;;;;;;40.25;19.50;;;;;;;2.17;69.15;99328.38;5058888;28;20090;-63
2021/01/26 01:52:28;;;;;;;37.45;19.52;;;;;;;2.16;69.34;99350.44;5072924;28;20412;-63
2021/01/26 01:55:01;;;;;;;44.10;23.25;;;;;;;2.10;69.86;99343.69;5072110;28;20087;-64
2021/01/26 01:57:33;;;;;;;39.42;18.83;;;;;;;2.13;69.80;99332.94;5070300;28;20442;-64
2021/01/26 02:00:03;;;;;;;46.70;22.58;;;;;;;2.12;69.32;99336.53;5073067;28;20040;-63
2021/01/26 02:02:29;;;;;;;51.42;23.30;;;;;;;2.06;69.84;99310.47;5072624;28;20036;-64
2021/01/26 02:05:01;;;;;;;46.90;22.90;;;;;;;2.15;69.76;99332.88;5071901;28;20542;-62
2021/01/26 02:07:28;;;;;;;43.88;19.65;;;;;;;2.28;69.48;99322.50;5070341;28;20408;-64
2021/01/26 02:09:53;;;;;;;43.95;21.73;;;;;;;1.94;69.40;99263.59;5063459;28;20451;-63
2021/01/26 02:12:19;;;;;;;45.58;23.80;;;;;;;2.24;69.61;99318.34;5052101;28;20045;-64
2021/01/26 02:14:51;;;;;;;48.75;21.08;;;;;;;2.33;69.52;99331.03;5052239;28;20544;-52
2021/01/26 02:17:32;;;;;;;36.95;17.13;;;;;;;2.39;69.54;99317.47;5053129;28;20489;-61
2021/01/26 02:20:28;;;;;;;42.28;20.63;;;;;;;2.43;69.16;99316.41;5051967;28;20044;-65
2021/01/26 02:23:32;;;;;;;41.22;19.02;;;;;;;2.49;68.81;99311.69;5052169;28;20059;-64
2021/01/26 02:26:16;;;;;;;45.03;22.85;;;;;;;2.39;69.40;99306.91;5051658;28;20045;-63
2021/01/26 02:28:51;;;;;;;49.17;24.17;;;;;;;2.41;69.28;99299.78;5069318;28;20036;-64
2021/01/26 02:31:23;;;;;;;49.05;24.73;;;;;;;2.37;69.42;99295.56;5071617;28;20051;-64
2021/01/26 02:34:10;;;;;;;42.03;20.20;;;;;;;2.44;69.37;99294.31;5072226;28;20158;-63
2021/01/26 02:37:08;;;;;;;37.45;16.83;;;;;;;2.46;69.40;99285.44;5071260;28;20589;-64
2021/01/26 02:39:49;;;;;;;45.00;24.15;;;;;;;2.37;69.32;99289.44;5069258;28;20032;-63
2021/01/26 02:42:33;;;;;;;39.55;19.85;;;;;;;2.29;70.00;99296.03;5070924;28;20123;-64
2021/01/26 02:45:14;;;;;;;42.38;22.08;;;;;;;2.36;69.67;99290.38;5054931;28;20044;-64
2021/01/26 02:47:45;;;;;;;46.58;23.13;;;;;;;2.38;69.70;99273.50;5051493;28;20040;-64
2021/01/26 02:50:13;;;;;;;43.53;22.98;;;;;;;2.42;69.54;99275.06;5054128;28;20036;-60
2021/01/26 02:53:14;;;;;;;41.50;21.67;;;;;;;2.39;69.92;99275.19;5071092;28;20361;-62
2021/01/26 02:55:57;;;;;;;46.38;22.95;;;;;;;2.48;69.01;99271.19;5070612;28;20198;-62
2021/01/26 02:58:34;;;;;;;40.15;18.27;;;;;;;2.46;68.87;99248.47;5071901;28;20031;-62
2021/01/26 03:01:02;;;;;;;44.92;21.58;;;;;;;2.46;69.32;99251.94;5069075;28;20032;-63
2021/01/26 03:03:49;;;;;;;46.83;21.33;;;;;;;2.50;69.61;99266.69;5070851;28;20051;-60
2021/01/26 03:06:29;;;;;;;42.17;21.02;;;;;;;2.53;69.50;99260.38;5071532;28;20032;-63
2021/01/26 03:09:00;;;;;;;46.95;22.83;;;;;;;2.45;69.31;99226.44;5070324;28;20036;-62
2021/01/26 03:11:51;;;;;;;48.83;22.00;;;;;;;2.00;69.92;99178.78;5066989;28;20036;-59
2021/01/26 03:14:25;;;;;;;47.90;21.95;;;;;;;1.99;69.68;99172.63;5051168;28;20036;-63
2021/01/26 03:17:00;;;;;;;46.92;21.80;;;;;;;2.41;69.55;99231.09;5051315;28;20033;-63
2021/01/26 03:19:30;;;;;;;35.00;15.80;;;;;;;2.49;69.21;99241.19;5051258;28;20040;-64
2021/01/26 03:22:00;;;;;;;35.33;16.92;;;;;;;2.38;69.82;99233.03;5051890;28;20124;-62
2021/01/26 03:24:31;;;;;;;48.88;22.58;;;;;;;2.28;70.00;99235.34;5050450;28;20524;-65
2021/01/26 03:26:58;;;;;;;48.60;22.50;;;;;;;2.12;70.33;99209.78;5057016;28;20064;-63
2021/01/26 03:29:30;;;;;;;39.70;18.75;;;;;;;2.30;70.16;99212.31;5070364;28;20522;-63
2021/01/26 03:31:59;;;;;;;38.55;15.60;;;;;;;2.31;69.93;99224.59;5068470;28;20040;-65
2021/01/26 03:34:26;;;;;;;47.65;20.95;;;;;;;2.10;70.01;99253.06;5070335;28;20119;-64
2021/01/26 03:36:52;;;;;;;50.10;23.40;;;;;;;2.05;70.71;99208.41;5069493;28;20036;-65
2021/01/26 03:39:18;;;;;;;55.33;22.58;;;;;;;2.06;71.20;99214.56;5070767;28;20055;-62
2021/01/26 03:41:44;;;;;;;49.72;19.65;;;;;;;1.77;70.37;99141.31;5068980;28;20032;-64
2021/01/26 03:44:11;;;;;;;57.50;25.10;;;;;;;2.10;70.63;99224.84;5070349;28;20084;-62
2021/01/26 03:46:39;;;;;;;48.90;23.35;;;;;;;2.17;71.08;99253.56;5070742;28;20032;-65
2021/01/26 03:49:38;;;;;;;47.33;20.35;;;;;;;2.24;70.82;99255.78;5070429;28;20032;-64
2021/01/26 03:52:35;;;;;;;55.88;24.58;;;;;;;2.21;70.94;99244.53;5068424;28;20396;-60
2021/01/26 03:55:25;;;;;;;55.50;26.08;;;;;;;2.19;70.98;99222.66;5069846;28;20040;-64
2021/01/26 03:58:35;;;;;;;48.60;23.02;;;;;;;2.22;71.49;99217.19;5068726;28;20045;-50
2021/01/26 04:01:22;;;;;;;56.03;24.60;;;;;;;2.27;70.96;99208.06;5069065;28;20080;-62
2021/01/26 04:04:10;;;;;;;58.50;25.10;;;;;;;2.31;70.77;99210.56;5068346;28;20408;-62
2021/01/26 04:06:46;;;;;;;52.78;24.65;;;;;;;2.21;70.69;99226.91;5068935;28;20446;-63
2021/01/26 04:09:18;;;;;;;52.67;22.63;;;;;;;2.28;70.56;99225.59;5068599;28;20492;-61
2021/01/26 04:12:15;;;;;;;52.08;21.52;;;;;;;2.25;71.09;99223.13;5068708;28;20081;-63
2021/01/26 04:15:00;;;;;;;;;;;;;;;2.34;70.36;99202.44;5060366;28;20040;-63
2021/01/26 04:17:35;;;;;;;46.70;17.55;;;;;;;2.34;70.80;99205.94;5049685;28;20019;-62
2021/01/26 04:20:27;;;;;;;64.30;28.05;;;;;;;2.21;70.85;99215.50;5049296;28;20040;-62
2021/01/26 04:22:59;;;;;;;56.65;26.23;;;;;;;2.20;71.06;99206.69;5052209;28;20043;-60
2021/01/26 04:25:34;;;;;;;50.17;21.50;;;;;;;2.01;71.29;99181.31;5067258;28;20541;-63
2021/01/26 04:28:02;;;;;;;52.47;23.75;;;;;;;2.10;71.18;99195.81;5069856;28;20028;-61
2021/01/26 04:30:29;;;;;;;66.65;25.35;;;;;;;2.11;71.71;99212.50;5069743;28;20088;-62
2021/01/26 04:32:59;;;;;;;59.10;25.60;;;;;;;2.09;71.71;99199.38;5068722;28;20071;-61
2021/01/26 04:35:25;;;;;;;55.00;23.40;;;;;;;2.13;71.56;99190.34;5068006;28;20068;-62
2021/01/26 04:37:50;;;;;;;49.20;20.90;;;;;;;2.14;71.67;99180.66;5070057;28;20091;-64
2021/01/26 04:40:17;;;;;;;55.88;25.73;;;;;;;2.17;71.65;99190.16;5069211;28;20472;-63
2021/01/26 04:42:43;;;;;;;49.90;21.60;;;;;;;2.25;71.68;99191.44;5058736;28;20047;-63
2021/01/26 04:45:12;;;;;;;58.53;23.92;;;;;;;2.26;70.97;99179.09;5050829;28;20036;-62
2021/01/26 04:47:58;;;;;;;52.45;24.35;;;;;;;2.12;71.20;99156.94;5049349;28;20101;-63
2021/01/26 04:50:42;;;;;;;53.75;25.83;;;;;;;2.22;71.42;99169.66;5049370;28;20102;-56
2021/01/26 04:53:33;;;;;;;60.10;27.13;;;;;;;2.25;71.44;99166.84;5056363;28;20125;-63
2021/01/26 04:56:17;;;;;;;44.40;18.08;;;;;;;2.39;70.80;99177.44;5068414;28;20128;-62
2021/01/26 04:58:56;;;;;;;58.15;24.60;;;;;;;2.28;71.13;99170.13;5057683;28;20044;-63
2021/01/26 05:01:28;;;;;;;59.28;26.63;;;;;;;2.31;71.23;99166.47;5050439;28;20036;-61
2021/01/26 05:03:54;;;;;;;69.80;29.02;;;;;;;2.31;71.39;99195.53;5049755;28;20124;-63
2021/01/26 05:06:24;;;;;;;63.65;29.33;;;;;;;2.24;71.34;99159.84;5050892;28;20132;-65
2021/01/26 05:08:53;;;;;;;67.05;29.20;;;;;;;2.34;70.99;99176.88;5069454;28;20090;-63
2021/01/26 05:11:23;;;;;;;66.53;29.92;;;;;;;2.18;71.52;99152.28;5069526;28;20085;-60
2021/01/26 05:14:33;;;;;;;58.53;25.40;;;;;;;2.46;70.95;99167.38;5068491;28;20075;-64
2021/01/26 05:17:26;;;;;;;61.33;25.92;;;;;;;2.12;70.68;99098.84;5058116;28;20052;-62
2021/01/26 05:20:12;;;;;;;61.60;27.55;;;;;;;2.19;70.69;99109.91;5053393;28;20043;-63
2021/01/26 05:22:53;;;;;;;64.70;29.15;;;;;;;2.44;71.29;99149.00;5053642;28;20503;-68
2021/01/26 05:25:22;;;;;;;55.42;24.58;;;;;;;2.46;70.65;99159.47;5053158;28;20053;-67
2021/01/26 05:27:49;;;;;;;54.55;24.60;;;;;;;2.52;70.81;99155.63;5062145;28;20063;-66
2021/01/26 05:30:25;;;;;;;66.68;28.70;;;;;;;2.37;70.50;99117.72;5073039;28;20056;-62
2021/01/26 05:32:51;;;;;;;65.00;27.20;;;;;;;2.33;70.83;99117.03;5073960;28;20049;-65
2021/01/26 05:35:18;;;;;;;67.05;28.55;;;;;;;2.47;70.80;99155.03;5073214;28;20032;-64
2021/01/26 05:37:47;;;;;;;57.92;27.08;;;;;;;2.25;71.39;99124.56;5072184;28;20608;-62
2021/01/26 05:40:28;;;;;;;60.35;28.33;;;;;;;2.46;71.16;99146.25;5071455;28;20454;-62
2021/01/26 05:42:57;;;;;;;51.13;22.13;;;;;;;2.63;70.51;99155.81;5073437;28;20056;-64
2021/01/26 05:45:45;;;;;;;61.22;28.77;;;;;;;2.50;70.72;99144.28;5073166;28;20047;-66
2021/01/26 05:48:17;;;;;;;37.30;18.58;;;;;;;2.70;70.06;99149.25;5072330;28;20456;-68
2021/01/26 05:50:44;;;;;;;47.30;21.10;;;;;;;2.48;70.15;99106.53;5057004;28;20059;-68
2021/01/26 05:53:32;;;;;;;52.65;23.35;;;;;;;2.62;70.30;99124.22;5052889;28;20037;-69
2021/01/26 05:56:13;;;;;;;49.38;24.35;;;;;;;2.60;70.53;99148.09;5052528;28;20175;-61
2021/01/26 05:58:45;;;;;;;53.25;23.45;;;;;;;2.55;70.31;99160.72;5052259;28;20029;-64
2021/01/26 06:01:26;;;;;;;60.10;27.75;;;;;;;2.37;70.84;99123.00;5053452;28;20175;-64
2021/01/26 06:04:15;;;;;;;62.30;28.17;;;;;;;2.55;70.42;99144.88;5052176;28;20048;-64
2021/01/26 06:06:54;;;;;;;62.70;28.10;;;;;;;2.54;70.59;99128.16;5052011;28;20029;-65
2021/01/26 06:09:31;;;;;;;61.22;27.98;;;;;;;2.63;70.55;99139.13;5060041;28;20044;-65
2021/01/26 06:12:26;;;;;;;54.80;26.63;;;;;;;2.49;70.88;99110.88;5068492;28;20033;-61
2021/01/26 06:14:54;;;;;;;64.57;28.02;;;;;;;2.59;70.56;99127.88;5051404;28;20051;-63
2021/01/26 06:17:23;;;;;;;35.35;16.23;;;;;;;2.84;69.49;99110.56;5053305;28;20071;-64
2021/01/26 06:20:09;;;;;;;36.70;14.63;;;;;;;2.83;69.67;99130.00;5051704;28;20033;-63
2021/01/26 06:22:35;;;;;;;;;;;;;;;2.81;69.95;99113.41;5053270;28;20491;-63
2021/01/26 06:25:03;;;;;;;;;;;;;;;2.79;69.58;99113.50;5052798;28;19956;-65
2021/01/26 06:27:45;;;;;;;53.33;23.85;;;;;;;2.68;69.57;99105.34;5050902;28;19917;-61
2021/01/26 06:30:17;;;;;;;59.97;29.42;;;;;;;2.67;70.08;99120.38;5050374;28;20167;-67
2021/01/26 06:32:55;;;;;;;56.13;27.27;;;;;;;2.68;70.77;99110.63;5052407;28;20088;-63
2021/01/26 06:35:37;;;;;;;54.05;26.30;;;;;;;2.32;69.93;99033.47;5051826;28;20128;-64
2021/01/26 06:38:37;;;;;;;57.28;28.48;;;;;;;2.78;70.42;99103.88;5051792;28;20107;-67
2021/01/26 06:41:34;;;;;;;55.72;27.48;;;;;;;2.41;69.76;99038.22;5051972;28;20067;-62
2021/01/26 06:44:35;;;;;;;;;;;;;;;2.96;69.15;99101.91;5069596;28;20036;-52
2021/01/26 06:47:20;;;;;;;58.08;27.35;;;;;;;2.95;69.54;99109.91;5058566;28;20368;-58
2021/01/26 06:50:00;;;;;;;52.38;24.58;;;;;;;2.96;69.58;99099.25;5057528;28;20124;-57
2021/01/26 06:52:34;;;;;;;56.38;25.25;;;;;;;2.97;69.60;99111.53;5062494;28;20036;-53
2021/01/26 06:55:28;;;;;;;48.97;22.83;;;;;;;2.96;69.29;99099.25;5051778;28;20033;-61
2021/01/26 06:58:44;;;;;;;54.33;29.20;;;;;;;2.98;69.20;99097.38;5050568;28;20029;-66
2021/01/26 07:01:38;;;;;;;54.50;27.63;;;;;;;3.00;68.73;99102.53;5051268;28;20440;-64
2021/01/26 07:04:29;;;;;;;58.42;27.58;;;;;;;2.99;68.44;99087.63;5049921;28;20052;-63
2021/01/26 07:07:39;;;;;;;52.20;26.98;;;;;;;3.01;68.59;99091.88;5051598;28;20100;-63
2021/01/26 07:10:08;;;;;;;54.53;29.42;;;;;;;2.94;68.60;99093.22;5042064;28;20049;-65
2021/01/26 07:12:52;;;;;;;45.83;23.40;;;;;;;3.08;68.40;99076.50;5052105;28;20099;-65
2021/01/26 07:15:44;;;;;;;46.97;26.02;;;;;;;3.08;68.31;99088.84;5053241;28;20044;-65
2021/01/26 07:18:44;;;;;;;47.83;25.23;;;;;;;3.16;67.45;99081.31;5050798;28;20048;-66
2021/01/26 07:21:35;;;;;;;46.05;26.17;;;;;;;3.15;67.30;99064.59;5060264;28;20040;-63
2021/01/26 07:24:04;;;;;;;43.25;25.80;;;;;;;3.19;67.06;99052.03;5051137;28;20116;-65
2021/01/26 07:26:29;;;;;;;45.90;25.17;;;;;;;3.32;66.53;99067.13;5051332;28;20041;-64
2021/01/26 07:29:33;;;;;;;47.95;24.70;;;;;;;3.33;66.34;99048.50;5051315;28;20040;-64
2021/01/26 07:32:34;;;;;;;36.28;20.30;;;;;;;3.36;65.58;99063.31;5050997;28;20155;-66
2021/01/26 07:35:06;;;;;;;38.35;20.58;;;;;;;3.29;65.06;99042.56;5050948;28;20064;-66
2021/01/26 07:37:45;;;;;;;32.90;18.27;;;;;;;3.30;65.47;99038.13;5050796;28;20055;-64
2021/01/26 07:40:21;;;;;;;41.70;23.77;;;;;;;3.26;65.08;99047.22;5049364;28;20040;-67
2021/01/26 07:43:19;;;;;;;39.03;24.10;;;;;;;3.29;65.67;99037.25;5050216;28;20053;-65
2021/01/26 07:46:08;;;;;;;26.60;14.88;;;;;;;3.39;65.03;99031.41;5049811;28;20044;-66
2021/01/26 07:48:52;;;;;;;38.38;21.83;;;;;;;3.32;64.83;99028.28;5050769;28;20511;-64
2021/01/26 07:51:23;;;;;;;35.17;19.20;;;;;;;3.43;65.39;99048.78;5049001;28;20037;-65
2021/01/26 07:54:03;;;;;;;31.55;18.63;;;;;;;3.58;64.61;99023.97;5051227;28;20045;-65
2021/01/26 07:56:34;;;;;;;31.90;19.70;;;;;;;3.69;63.67;99043.59;5050361;28;20033;-65
2021/01/26 07:59:04;;;;;;;30.08;18.35;;;;;;;3.66;63.75;99039.34;5053615;28;20037;-66
2021/01/26 08:01:37;;;;;;;35.75;19.15;;;;;;;3.71;63.34;99021.34;5069697;28;20039;-67
2021/01/26 08:04:04;;;;;;;31.90;20.40;;;;;;;3.57;63.76;98981.72;5069348;28;20885;-64
2021/01/26 08:06:35;;;;;;;30.98;19.38;;;;;;;3.84;63.54;99012.63;5068620;28;20032;-64
2021/01/26 08:09:04;;;;;;;31.52;18.30;;;;;;;3.76;63.08;99021.06;5070285;28;20080;-66
2021/01/26 08:11:30;;;;;;;26.05;16.85;;;;;;;3.75;62.72;99016.72;5069573;28;20032;-67
2021/01/26 08:14:06;;;;;;;31.70;19.80;;;;;;;3.51;63.56;98992.72;5069965;28;20538;-64
2021/01/26 08:16:35;;;;;;;25.38;14.70;;;;;;;3.74;62.82;99009.72;5067566;28;20516;-65
2021/01/26 08:19:04;;;;;;;34.83;20.25;;;;;;;3.67;62.99;99016.38;5056539;28;20052;-65
2021/01/26 08:21:36;;;;;;;33.45;19.88;;;;;;;3.66;62.44;99031.41;5050085;28;20029;-66
2021/01/26 08:24:14;;;;;;;31.75;19.77;;;;;;;3.74;62.76;99004.44;5050675;28;20050;-67
2021/01/26 08:26:41;;;;;;;33.38;19.65;;;;;;;3.85;62.85;99001.91;5049621;28;20025;-65
2021/01/26 08:29:08;;;;;;;35.30;21.35;;;;;;;3.88;61.89;99014.97;5054138;28;20044;-65
2021/01/26 08:31:38;;;;;;;28.02;16.52;;;;;;;4.04;61.73;98994.56;5049648;28;20041;-66
2021/01/26 08:34:23;;;;;;;33.33;19.83;;;;;;;4.07;61.80;98987.25;5058560;28;20804;-67
2021/01/26 08:37:09;;;;;;;32.38;18.63;;;;;;;4.15;61.45;98979.66;5069410;28;20478;-66
2021/01/26 08:39:44;;;;;;;31.33;19.10;;;;;;;4.09;60.83;98990.63;5067942;28;20111;-66
2021/01/26 08:42:11;;;;;;;33.40;18.23;;;;;;;4.23;60.97;98962.38;5056028;28;20033;-65
2021/01/26 08:44:36;;;;;;;24.10;13.93;;;;;;;4.36;59.78;98960.59;5056943;28;20519;-64
2021/01/26 08:47:39;;;;;;;31.83;19.77;;;;;;;4.29;60.67;98954.88;5081450;28;20029;-65
2021/01/26 08:50:12;;;;;;;34.85;19.33;;;;;;;4.28;60.22;98965.56;5064576;28;20523;-65
2021/01/26 08:52:37;;;;;;;34.80;19.25;;;;;;;4.21;59.84;98933.31;5074670;28;20090;-66
2021/01/26 08:55:03;;;;;;;36.65;21.52;;;;;;;4.27;59.77;98940.00;5090392;28;20040;-66
2021/01/26 08:57:29;;;;;;;28.63;16.73;;;;;;;4.33;59.69;98952.00;5080768;28;20023;-66
2021/01/26 09:00:18;;;;;;;30.45;16.23;;;;;;;4.24;59.76;98959.63;5079986;28;20377;-63
2021/01/26 09:02:53;;;;;;;31.25;19.52;;;;;;;4.16;60.72;98968.09;5078211;28;20036;-67
2021/01/26 09:05:40;;;;;;;31.23;18.50;;;;;;;4.27;60.18;98959.41;5087322;28;20353;-66
2021/01/26 09:08:07;;;;;;;33.22;19.38;;;;;;;3.77;59.85;98898.31;5086045;28;20032;-62
2021/01/26 09:10:52;;;;;;;31.38;19.05;;;;;;;4.30;60.08;98967.16;5074498;28;20036;-66
2021/01/26 09:13:32;;;;;;;30.27;17.05;;;;;;;4.57;59.29;98970.63;5065933;28;20130;-67
2021/01/26 09:16:10;;;;;;;31.15;18.20;;;;;;;4.57;58.61;98994.50;5081157;28;20036;-66
2021/01/26 09:18:36;;;;;;;26.58;16.80;;;;;;;4.57;59.36;98960.91;5060598;28;20083;-56
2021/01/26 09:21:08;;;;;;;33.58;18.77;;;;;;;4.50;59.09;98985.28;5080379;28;20047;-67
2021/01/26 09:23:35;;;;;;;29.67;18.23;;;;;;;4.53;59.33;98961.22;5070069;28;20449;-67
2021/01/26 09:26:10;;;;;;;31.50;18.52;;;;;;;4.39;59.73;98938.31;5087740;28;20028;-67
2021/01/26 09:28:44;;;;;;;22.15;10.95;;;;;;;4.65;58.94;98986.88;5076026;28;20426;-66
2021/01/26 09:31:12;;;;;;;27.00;15.60;;;;;;;4.25;58.89;98923.38;5086751;28;20580;-67
2021/01/26 09:33:38;;;;;;;29.98;16.45;;;;;;;4.06;59.80;98914.03;5079613;28;20043;-63
2021/01/26 09:36:03;;;;;;;28.92;17.88;;;;;;;4.36;59.32;98931.44;5080343;28;20032;-65
2021/01/26 09:38:40;;;;;;;28.17;16.20;;;;;;;4.45;59.91;98956.44;5088466;28;20148;-67
2021/01/26 09:41:20;;;;;;;29.23;17.25;;;;;;;4.42;59.32;98951.34;5061883;28;20044;-54
2021/01/26 09:43:48;;;;;;;31.55;17.83;;;;;;;4.42;59.45;98949.56;5076680;28;20454;-61
2021/01/26 09:46:21;;;;;;;34.83;18.15;;;;;;;4.31;59.35;98946.78;5078378;28;20040;-65
2021/01/26 09:48:50;;;;;;;31.80;17.73;;;;;;;4.18;60.27;98927.41;5087305;28;20101;-66
2021/01/26 09:51:39;;;;;;;29.13;17.50;;;;;;;4.22;60.38;98936.84;5074513;28;20193;-67
2021/01/26 09:54:20;;;;;;;28.90;16.85;;;;;;;4.22;60.08;98923.59;5067238;28;20053;-66
2021/01/26 09:56:46;;;;;;;32.90;16.67;;;;;;;4.24;59.63;98941.09;5087008;28;20036;-67
2021/01/26 09:59:14;;;;;;;28.27;15.95;;;;;;;4.21;60.43;98967.75;5077431;28;20123;-68
2021/01/26 10:01:42;;;;;;;28.80;17.15;;;;;;;4.18;60.55;98928.25;5072474;28;20046;-62
2021/01/26 10:04:09;;;;;;;23.05;13.73;;;;;;;3.76;59.93;98851.63;5069221;28;20129;-67
2021/01/26 10:06:35;;;;;;;29.10;17.00;;;;;;;4.17;60.37;98926.53;5077683;28;20060;-67
2021/01/26 10:09:21;;;;;;;22.67;14.00;;;;;;;4.27;59.99;98909.06;5088424;28;20045;-66
2021/01/26 10:11:48;;;;;;;30.73;15.18;;;;;;;4.22;60.45;98952.72;5075548;28;20032;-67
2021/01/26 10:14:19;;;;;;;26.42;15.85;;;;;;;4.21;60.74;98970.41;5073242;28;20045;-67
2021/01/26 10:16:47;;;;;;;27.45;15.75;;;;;;;4.16;60.61;98912.47;5087073;28;20036;-66
2021/01/26 10:19:39;;;;;;;22.90;12.23;;;;;;;4.13;60.46;98901.22;5077075;28;20415;-66
2021/01/26 10:22:10;;;;;;;28.08;16.48;;;;;;;4.07;60.55;98893.69;5084807;28;20086;-65
2021/01/26 10:24:36;;;;;;;26.40;15.15;;;;;;;4.09;61.08;98897.91;5073855;28;20072;-56
2021/01/26 10:27:09;;;;;;;27.02;16.00;;;;;;;4.13;61.00;98880.03;5089672;28;20120;-62
2021/01/26 10:29:42;;;;;;;26.98;15.95;;;;;;;4.11;60.85;98860.75;5083061;28;20044;-66
2021/01/26 10:32:11;;;;;;;24.85;14.95;;;;;;;4.22;60.00;98871.47;5078051;28;20048;-64
2021/01/26 10:34:42;;;;;;;27.77;15.52;;;;;;;4.29;60.69;98853.31;5068152;28;20040;-62
2021/01/26 10:37:18;;;;;;;25.08;12.80;;;;;;;4.34;60.21;98848.56;5071007;28;20149;-67
2021/01/26 10:39:45;;;;;;;26.83;15.73;;;;;;;3.94;60.65;98795.72;5075250;28;20844;-73
2021/01/26 10:42:23;;;;;;;27.83;15.68;;;;;;;4.15;60.89;98844.53;5078584;28;20040;-67
2021/01/26 10:44:54;;;;;;;29.83;14.23;;;;;;;4.23;61.47;98836.06;5074517;28;20127;-72
2021/01/26 10:47:34;;;;;;;31.42;17.15;;;;;;;4.10;61.65;98812.22;5075053;28;20061;-71
2021/01/26 10:50:14;;;;;;;25.42;15.00;;;;;;;4.10;61.58;98812.22;5079548;28;20051;-73
2021/01/26 10:52:49;;;;;;;26.73;14.88;;;;;;;4.10;61.60;98816.66;5084244;28;20039;-69
2021/01/26 10:55:20;;;;;;;25.83;15.05;;;;;;;4.20;61.33;98814.22;5062446;28;20070;-71
2021/01/26 10:57:47;;;;;;;23.40;12.70;;;;;;;4.23;61.40;98814.88;5058311;28;20508;-65
2021/01/26 11:00:16;;;;;;;29.80;16.48;;;;;;;4.12;61.98;98822.69;5078853;28;20035;-68
2021/01/26 11:02:41;;;;;;;27.40;15.77;;;;;;;4.13;61.83;98806.72;5072043;28;20092;-66
2021/01/26 11:05:09;;;;;;;25.90;14.63;;;;;;;4.18;61.82;98821.44;5085743;28;20033;-65
2021/01/26 11:07:35;;;;;;;26.25;14.52;;;;;;;4.09;62.72;98804.38;5067280;28;20032;-68
2021/01/26 11:10:03;;;;;;;25.00;13.32;;;;;;;4.04;62.70;98782.66;5074681;28;20492;-66
2021/01/26 11:12:28;;;;;;;23.70;14.43;;;;;;;3.99;63.52;98791.78;5065543;28;20119;-75
2021/01/26 11:14:57;;;;;;;27.60;14.95;;;;;;;3.99;63.67;98798.88;5087502;28;20174;-75
2021/01/26 11:17:23;;;;;;;21.60;10.82;;;;;;;3.83;63.19;98749.63;5076473;28;20063;-74
2021/01/26 11:19:50;;;;;;;28.15;15.98;;;;;;;4.00;63.45;98782.03;5072975;28;20150;-67
2021/01/26 11:22:16;;;;;;;27.45;15.05;;;;;;;3.82;63.20;98758.53;5076746;28;20520;-68
2021/01/26 11:24:43;;;;;;;22.42;13.50;;;;;;;3.97;63.81;98779.59;5067081;28;20028;-68
2021/01/26 11:27:09;;;;;;;27.02;14.90;;;;;;;3.99;63.64;98789.16;5088100;28;20432;-68
2021/01/26 11:29:35;;;;;;;24.48;14.07;;;;;;;4.12;63.18;98777.66;5076056;28;20510;-73
2021/01/26 11:32:01;;;;;;;20.05;11.63;;;;;;;4.00;63.53;98756.41;5072187;28;20040;-65
2021/01/26 11:34:27;;;;;;;25.65;15.15;;;;;;;3.98;64.14;98783.94;5079873;28;20392;-63
2021/01/26 11:36:52;;;;;;;21.98;13.95;;;;;;;3.90;63.91;98781.00;5073575;28;20044;-66
2021/01/26 11:39:18;;;;;;;23.48;14.52;;;;;;;3.86;64.41;98780.34;5083253;28;20037;-67
2021/01/26 11:41:43;;;;;;;17.92;9.30;;;;;;;4.01;63.91;98808.41;5076863;28;20040;-62
2021/01/26 11:44:09;;;;;;;18.35;10.32;;;;;;;4.02;64.00;98801.31;5074062;28;20455;-66
2021/01/26 11:46:36;;;;;;;24.33;13.93;;;;;;;3.86;64.73;98813.00;5082892;28;20140;-65
2021/01/26 11:49:01;;;;;;;25.33;15.02;;;;;;;3.86;64.62;98791.81;5073621;28;20438;-67
2021/01/26 11:51:27;;;;;;;27.45;15.05;;;;;;;3.70;64.63;98762.03;5067231;28;20032;-68
2021/01/26 11:53:53;;;;;;;21.00;13.35;;;;;;;3.84;64.52;98798.97;5078336;28;20373;-66
2021/01/26 11:56:21;;;;;;;16.15;10.45;;;;;;;3.99;63.56;98789.16;5079374;28;20040;-66
2021/01/26 11:58:47;;;;;;;25.23;14.38;;;;;;;3.29;64.29;98703.91;5072672;28;20032;-68